sensor_id;sensor_type;location;lat;lon;timestamp;pressure;altitude;pressure_sealevel;temperature;humidity
65190;BME280;51777;53.570;9.984;2023-11-19T00:00:22;100629.91;;;4.92;100.00
65190;BME280;51777;53.570;9.984;2023-11-19T00:02:49;100623.97;;;4.92;100.00
65190;BME280;51777;53.570;9.984;2023-11-19T00:05:14;100623.03;;;4.93;100.00
65190;BME280;51777;53.570;9.984;2023-11-19T00:07:40;100612.69;;;4.94;100.00
65190;BME280;51777;53.570;9.984;2023-11-19T00:10:13;100610.63;;;4.99;100.00
65190;BME280;51777;53.570;9.984;2023-11-19T00:12:42;100601.88;;;5.02;100.00
65190;BME280;51777;53.570;9.984;2023-11-19T00:15:09;100591.63;;;5.02;100.00
65190;BME280;51777;53.570;9.984;2023-11-19T00:17:40;100583.00;;;5.03;100.00
65190;BME280;51777;53.570;9.984;2023-11-19T00:20:10;100565.56;;;4.97;100.00
65190;BME280;51777;53.570;9.984;2023-11-19T00:22:35;100568.56;;;5.02;100.00
65190;BME280;51777;53.570;9.984;2023-11-19T00:25:01;100572.88;;;5.01;100.00
65190;BME280;51777;53.570;9.984;2023-11-19T00:27:27;100567.06;;;4.99;100.00
65190;BME280;51777;53.570;9.984;2023-11-19T00:29:52;100549.94;;;5.00;100.00
65190;BME280;51777;53.570;9.984;2023-11-19T00:32:18;100544.81;;;5.00;100.00
65190;BME280;51777;53.570;9.984;2023-11-19T00:34:44;100543.66;;;5.04;100.00
65190;BME280;51777;53.570;9.984;2023-11-19T00:37:10;100537.94;;;5.00;100.00
65190;BME280;51777;53.570;9.984;2023-11-19T00:39:35;100525.94;;;5.01;100.00
65190;BME280;51777;53.570;9.984;2023-11-19T00:42:01;100510.56;;;5.01;100.00
65190;BME280;51777;53.570;9.984;2023-11-19T00:44:26;100508.47;;;4.95;100.00
65190;BME280;51777;53.570;9.984;2023-11-19T00:46:52;100499.84;;;4.96;100.00
65190;BME280;51777;53.570;9.984;2023-11-19T00:49:17;100498.69;;;5.00;100.00
65190;BME280;51777;53.570;9.984;2023-11-19T00:51:42;100492.63;;;5.01;100.00
65190;BME280;51777;53.570;9.984;2023-11-19T00:54:08;100489.50;;;4.97;100.00
65190;BME280;51777;53.570;9.984;2023-11-19T00:56:33;100479.03;;;5.00;100.00
65190;BME280;51777;53.570;9.984;2023-11-19T00:58:59;100476.69;;;4.97;100.00
65190;BME280;51777;53.570;9.984;2023-11-19T01:01:25;100466.53;;;4.96;100.00
65190;BME280;51777;53.570;9.984;2023-11-19T01:03:51;100453.63;;;4.97;100.00
65190;BME280;51777;53.570;9.984;2023-11-19T01:06:30;100455.16;;;5.00;100.00
65190;BME280;51777;53.570;9.984;2023-11-19T01:08:55;100445.03;;;4.98;100.00
65190;BME280;51777;53.570;9.984;2023-11-19T01:11:25;100441.28;;;5.03;100.00
65190;BME280;51777;53.570;9.984;2023-11-19T01:13:51;100436.16;;;5.03;100.00
65190;BME280;51777;53.570;9.984;2023-11-19T01:16:17;100436.53;;;4.98;100.00
65190;BME280;51777;53.570;9.984;2023-11-19T01:18:43;100414.16;;;5.00;100.00
65190;BME280;51777;53.570;9.984;2023-11-19T01:21:08;100409.97;;;4.99;100.00
65190;BME280;51777;53.570;9.984;2023-11-19T01:23:34;100403.78;;;5.01;100.00
65190;BME280;51777;53.570;9.984;2023-11-19T01:25:59;100396.78;;;5.04;100.00
65190;BME280;51777;53.570;9.984;2023-11-19T01:28:25;100387.34;;;5.04;100.00
65190;BME280;51777;53.570;9.984;2023-11-19T01:30:51;100390.72;;;5.05;100.00
65190;BME280;51777;53.570;9.984;2023-11-19T01:33:16;100394.22;;;5.04;100.00
65190;BME280;51777;53.570;9.984;2023-11-19T01:35:42;100384.78;;;5.04;100.00
65190;BME280;51777;53.570;9.984;2023-11-19T01:38:07;100367.66;;;5.05;100.00
65190;BME280;51777;53.570;9.984;2023-11-19T01:40:36;100359.97;;;5.05;100.00
65190;BME280;51777;53.570;9.984;2023-11-19T01:43:05;100359.16;;;5.04;100.00
65190;BME280;51777;53.570;9.984;2023-11-19T01:45:33;100356.97;;;5.11;100.00
65190;BME280;51777;53.570;9.984;2023-11-19T01:48:02;100345.09;;;5.10;100.00
65190;BME280;51777;53.570;9.984;2023-11-19T01:50:31;100346.47;;;5.14;100.00
65190;BME280;51777;53.570;9.984;2023-11-19T01:52:58;100346.22;;;5.17;100.00
65190;BME280;51777;53.570;9.984;2023-11-19T01:55:25;100348.78;;;5.17;100.00
65190;BME280;51777;53.570;9.984;2023-11-19T01:57:52;100336.78;;;5.17;100.00
65190;BME280;51777;53.570;9.984;2023-11-19T02:00:18;100326.78;;;5.14;100.00
65190;BME280;51777;53.570;9.984;2023-11-19T02:02:46;100318.28;;;5.14;100.00
65190;BME280;51777;53.570;9.984;2023-11-19T02:05:13;100313.59;;;5.19;100.00
65190;BME280;51777;53.570;9.984;2023-11-19T02:07:39;100312.78;;;5.18;100.00
65190;BME280;51777;53.570;9.984;2023-11-19T02:10:05;100308.59;;;5.17;100.00
65190;BME280;51777;53.570;9.984;2023-11-19T02:12:39;100307.53;;;5.20;100.00
65190;BME280;51777;53.570;9.984;2023-11-19T02:15:09;100302.41;;;5.20;100.00
65190;BME280;51777;53.570;9.984;2023-11-19T02:17:34;100296.59;;;5.18;100.00
65190;BME280;51777;53.570;9.984;2023-11-19T02:20:05;100294.97;;;5.17;100.00
65190;BME280;51777;53.570;9.984;2023-11-19T02:22:34;100285.66;;;5.16;100.00
65190;BME280;51777;53.570;9.984;2023-11-19T02:25:04;100275.94;;;5.19;100.00
65190;BME280;51777;53.570;9.984;2023-11-19T02:30:14;100262.09;;;5.22;100.00
65190;BME280;51777;53.570;9.984;2023-11-19T02:32:41;100258.47;;;5.24;100.00
65190;BME280;51777;53.570;9.984;2023-11-19T02:35:07;100260.22;;;5.24;100.00
65190;BME280;51777;53.570;9.984;2023-11-19T02:37:36;100255.66;;;5.27;100.00
65190;BME280;51777;53.570;9.984;2023-11-19T02:40:02;100239.91;;;5.32;100.00
65190;BME280;51777;53.570;9.984;2023-11-19T02:42:28;100232.22;;;5.32;100.00
65190;BME280;51777;53.570;9.984;2023-11-19T02:44:54;100241.19;;;5.38;100.00
65190;BME280;51777;53.570;9.984;2023-11-19T02:47:19;100228.22;;;5.39;100.00
65190;BME280;51777;53.570;9.984;2023-11-19T02:49:46;100213.28;;;5.44;100.00
65190;BME280;51777;53.570;9.984;2023-11-19T02:52:13;100202.47;;;5.41;100.00
65190;BME280;51777;53.570;9.984;2023-11-19T02:54:39;100198.81;;;5.43;100.00
65190;BME280;51777;53.570;9.984;2023-11-19T02:57:06;100198.59;;;5.46;100.00
65190;BME280;51777;53.570;9.984;2023-11-19T02:59:35;100185.66;;;5.48;100.00
65190;BME280;51777;53.570;9.984;2023-11-19T03:02:05;100189.03;;;5.48;100.00
65190;BME280;51777;53.570;9.984;2023-11-19T03:04:33;100173.25;;;5.53;100.00
65190;BME280;51777;53.570;9.984;2023-11-19T03:06:58;100171.38;;;5.55;100.00
65190;BME280;51777;53.570;9.984;2023-11-19T03:09:24;100167.72;;;5.57;100.00
65190;BME280;51777;53.570;9.984;2023-11-19T03:11:50;100177.63;;;5.62;100.00
65190;BME280;51777;53.570;9.984;2023-11-19T03:14:15;100167.78;;;5.67;100.00
65190;BME280;51777;53.570;9.984;2023-11-19T03:16:45;100164.16;;;5.70;100.00
65190;BME280;51777;53.570;9.984;2023-11-19T03:19:11;100148.66;;;5.71;100.00
65190;BME280;51777;53.570;9.984;2023-11-19T03:21:37;100139.88;;;5.74;100.00
65190;BME280;51777;53.570;9.984;2023-11-19T03:24:02;100138.81;;;5.76;100.00
65190;BME280;51777;53.570;9.984;2023-11-19T03:26:28;100129.78;;;5.82;100.00
65190;BME280;51777;53.570;9.984;2023-11-19T03:28:54;100119.13;;;5.86;100.00
65190;BME280;51777;53.570;9.984;2023-11-19T03:31:19;100107.38;;;5.84;100.00
65190;BME280;51777;53.570;9.984;2023-11-19T03:33:45;100109.31;;;5.92;100.00
65190;BME280;51777;53.570;9.984;2023-11-19T03:36:12;100122.16;;;5.92;100.00
65190;BME280;51777;53.570;9.984;2023-11-19T03:38:38;100115.13;;;5.94;100.00
65190;BME280;51777;53.570;9.984;2023-11-19T03:41:13;100113.94;;;5.98;100.00
65190;BME280;51777;53.570;9.984;2023-11-19T03:43:40;100115.16;;;6.03;100.00
65190;BME280;51777;53.570;9.984;2023-11-19T03:46:21;100101.94;;;6.08;100.00
65190;BME280;51777;53.570;9.984;2023-11-19T03:48:47;100107.88;;;6.08;100.00
65190;BME280;51777;53.570;9.984;2023-11-19T03:51:13;100099.25;;;6.09;100.00
65190;BME280;51777;53.570;9.984;2023-11-19T03:53:42;100099.78;;;6.13;100.00
65190;BME280;51777;53.570;9.984;2023-11-19T03:56:09;100092.22;;;6.11;100.00
65190;BME280;51777;53.570;9.984;2023-11-19T03:58:35;100090.47;;;6.12;100.00
65190;BME280;51777;53.570;9.984;2023-11-19T04:01:01;100091.81;;;6.16;100.00
65190;BME280;51777;53.570;9.984;2023-11-19T04:03:26;100081.69;;;6.14;100.00
65190;BME280;51777;53.570;9.984;2023-11-19T04:05:52;100090.34;;;6.23;100.00
65190;BME280;51777;53.570;9.984;2023-11-19T04:08:17;100083.59;;;6.22;100.00
65190;BME280;51777;53.570;9.984;2023-11-19T04:10:42;100084.00;;;6.27;100.00
65190;BME280;51777;53.570;9.984;2023-11-19T04:13:08;100088.44;;;6.25;100.00
65190;BME280;51777;53.570;9.984;2023-11-19T04:15:33;100076.84;;;6.21;100.00
65190;BME280;51777;53.570;9.984;2023-11-19T04:17:58;100061.97;;;6.25;100.00
65190;BME280;51777;53.570;9.984;2023-11-19T04:20:24;100061.03;;;6.26;100.00
65190;BME280;51777;53.570;9.984;2023-11-19T04:22:50;100062.63;;;6.27;100.00
65190;BME280;51777;53.570;9.984;2023-11-19T04:25:16;100064.69;;;6.23;100.00
65190;BME280;51777;53.570;9.984;2023-11-19T04:27:41;100065.63;;;6.22;100.00
65190;BME280;51777;53.570;9.984;2023-11-19T04:30:07;100055.75;;;6.27;100.00
65190;BME280;51777;53.570;9.984;2023-11-19T04:32:36;100052.91;;;6.30;100.00
65190;BME280;51777;53.570;9.984;2023-11-19T04:35:01;100056.03;;;6.34;100.00
65190;BME280;51777;53.570;9.984;2023-11-19T04:37:26;100043.88;;;6.36;100.00
65190;BME280;51777;53.570;9.984;2023-11-19T04:39:52;100046.28;;;6.37;100.00
65190;BME280;51777;53.570;9.984;2023-11-19T04:42:17;100039.25;;;6.39;100.00
65190;BME280;51777;53.570;9.984;2023-11-19T04:44:43;100045.06;;;6.41;100.00
65190;BME280;51777;53.570;9.984;2023-11-19T04:47:09;100042.94;;;6.46;100.00
65190;BME280;51777;53.570;9.984;2023-11-19T04:49:40;100043.31;;;6.52;100.00
65190;BME280;51777;53.570;9.984;2023-11-19T04:52:05;100042.22;;;6.54;100.00
65190;BME280;51777;53.570;9.984;2023-11-19T04:54:31;100041.13;;;6.57;100.00
65190;BME280;51777;53.570;9.984;2023-11-19T04:56:56;100043.03;;;6.64;100.00
65190;BME280;51777;53.570;9.984;2023-11-19T04:59:21;100037.34;;;6.70;100.00
65190;BME280;51777;53.570;9.984;2023-11-19T05:01:47;100034.09;;;6.78;100.00
65190;BME280;51777;53.570;9.984;2023-11-19T05:04:13;100030.03;;;6.85;100.00
65190;BME280;51777;53.570;9.984;2023-11-19T05:06:40;100028.50;;;6.92;100.00
65190;BME280;51777;53.570;9.984;2023-11-19T05:09:05;100033.75;;;7.00;100.00
65190;BME280;51777;53.570;9.984;2023-11-19T05:11:36;100021.19;;;7.07;100.00
65190;BME280;51777;53.570;9.984;2023-11-19T05:14:05;100023.03;;;7.15;100.00
65190;BME280;51777;53.570;9.984;2023-11-19T05:16:30;100011.25;;;7.22;100.00
65190;BME280;51777;53.570;9.984;2023-11-19T05:18:56;100010.66;;;7.28;100.00
65190;BME280;51777;53.570;9.984;2023-11-19T05:21:21;100001.44;;;7.35;100.00
65190;BME280;51777;53.570;9.984;2023-11-19T05:23:47;100004.38;;;7.40;100.00
65190;BME280;51777;53.570;9.984;2023-11-19T05:26:22;100004.63;;;7.47;100.00
65190;BME280;51777;53.570;9.984;2023-11-19T05:28:48;100004.56;;;7.56;100.00
65190;BME280;51777;53.570;9.984;2023-11-19T05:31:14;99996.94;;;7.64;100.00
65190;BME280;51777;53.570;9.984;2023-11-19T05:33:39;99991.72;;;7.74;100.00
65190;BME280;51777;53.570;9.984;2023-11-19T05:36:05;99994.25;;;7.84;100.00
65190;BME280;51777;53.570;9.984;2023-11-19T05:38:33;100000.78;;;7.96;100.00
65190;BME280;51777;53.570;9.984;2023-11-19T05:40:59;99997.25;;;8.15;100.00
65190;BME280;51777;53.570;9.984;2023-11-19T05:43:24;99989.41;;;8.34;100.00
65190;BME280;51777;53.570;9.984;2023-11-19T05:45:49;100000.44;;;8.44;100.00
65190;BME280;51777;53.570;9.984;2023-11-19T05:48:15;99994.56;;;8.60;100.00
65190;BME280;51777;53.570;9.984;2023-11-19T05:50:40;99994.50;;;8.70;100.00
65190;BME280;51777;53.570;9.984;2023-11-19T05:53:06;99984.09;;;8.88;100.00
65190;BME280;51777;53.570;9.984;2023-11-19T05:55:34;99986.28;;;9.00;100.00
65190;BME280;51777;53.570;9.984;2023-11-19T05:58:00;99997.97;;;9.21;100.00
65190;BME280;51777;53.570;9.984;2023-11-19T06:00:25;99990.41;;;9.27;100.00
65190;BME280;51777;53.570;9.984;2023-11-19T06:02:51;99996.56;;;9.34;100.00
65190;BME280;51777;53.570;9.984;2023-11-19T06:05:18;99992.38;;;9.41;100.00
65190;BME280;51777;53.570;9.984;2023-11-19T06:07:43;99985.34;;;9.52;100.00
65190;BME280;51777;53.570;9.984;2023-11-19T06:10:09;99985.38;;;9.60;100.00
65190;BME280;51777;53.570;9.984;2023-11-19T06:12:35;99980.53;;;9.65;100.00
65190;BME280;51777;53.570;9.984;2023-11-19T06:15:07;99978.59;;;9.67;100.00
65190;BME280;51777;53.570;9.984;2023-11-19T06:17:34;99984.44;;;9.77;100.00
65190;BME280;51777;53.570;9.984;2023-11-19T06:19:59;99990.91;;;9.81;100.00
65190;BME280;51777;53.570;9.984;2023-11-19T06:22:25;99995.09;;;9.90;100.00
65190;BME280;51777;53.570;9.984;2023-11-19T06:24:50;99992.84;;;9.95;100.00
65190;BME280;51777;53.570;9.984;2023-11-19T06:27:15;99995.13;;;9.98;100.00
65190;BME280;51777;53.570;9.984;2023-11-19T06:29:41;99997.22;;;10.03;100.00
65190;BME280;51777;53.570;9.984;2023-11-19T06:32:07;99994.78;;;10.01;100.00
65190;BME280;51777;53.570;9.984;2023-11-19T06:34:33;100005.47;;;10.07;100.00
65190;BME280;51777;53.570;9.984;2023-11-19T06:36:59;99996.91;;;10.14;100.00
65190;BME280;51777;53.570;9.984;2023-11-19T06:39:24;99999.19;;;10.17;100.00
65190;BME280;51777;53.570;9.984;2023-11-19T06:41:50;99999.00;;;10.19;100.00
65190;BME280;51777;53.570;9.984;2023-11-19T06:44:15;99989.31;;;10.21;100.00
65190;BME280;51777;53.570;9.984;2023-11-19T06:46:40;99991.59;;;10.24;100.00
65190;BME280;51777;53.570;9.984;2023-11-19T06:49:06;99992.88;;;10.28;100.00
65190;BME280;51777;53.570;9.984;2023-11-19T06:51:34;100003.72;;;10.32;100.00
65190;BME280;51777;53.570;9.984;2023-11-19T06:53:59;99992.91;;;10.36;100.00
65190;BME280;51777;53.570;9.984;2023-11-19T06:56:25;99999.84;;;10.36;100.00
65190;BME280;51777;53.570;9.984;2023-11-19T06:58:51;100003.25;;;10.44;100.00
65190;BME280;51777;53.570;9.984;2023-11-19T07:01:17;100004.69;;;10.47;100.00
65190;BME280;51777;53.570;9.984;2023-11-19T07:03:47;100002.56;;;10.50;100.00
65190;BME280;51777;53.570;9.984;2023-11-19T07:06:13;100004.19;;;10.51;100.00
65190;BME280;51777;53.570;9.984;2023-11-19T07:08:40;100010.66;;;10.55;100.00
65190;BME280;51777;53.570;9.984;2023-11-19T07:11:06;100010.34;;;10.58;100.00
65190;BME280;51777;53.570;9.984;2023-11-19T07:13:32;100012.09;;;10.66;100.00
65190;BME280;51777;53.570;9.984;2023-11-19T07:15:57;100017.25;;;10.66;100.00
65190;BME280;51777;53.570;9.984;2023-11-19T07:18:23;100007.75;;;10.67;100.00
65190;BME280;51777;53.570;9.984;2023-11-19T07:20:49;100021.63;;;10.66;100.00
65190;BME280;51777;53.570;9.984;2023-11-19T07:23:14;100017.75;;;10.70;100.00
65190;BME280;51777;53.570;9.984;2023-11-19T07:25:43;100017.41;;;10.73;100.00
65190;BME280;51777;53.570;9.984;2023-11-19T07:28:12;100019.84;;;10.74;100.00
65190;BME280;51777;53.570;9.984;2023-11-19T07:30:38;100015.13;;;10.78;100.00
65190;BME280;51777;53.570;9.984;2023-11-19T07:33:04;100016.75;;;10.79;100.00
65190;BME280;51777;53.570;9.984;2023-11-19T07:35:30;100014.16;;;10.79;100.00
65190;BME280;51777;53.570;9.984;2023-11-19T07:37:56;100026.44;;;10.77;100.00
65190;BME280;51777;53.570;9.984;2023-11-19T07:40:23;100027.09;;;10.79;100.00
65190;BME280;51777;53.570;9.984;2023-11-19T07:42:48;100015.63;;;10.81;100.00
65190;BME280;51777;53.570;9.984;2023-11-19T07:45:14;100022.88;;;10.86;100.00
65190;BME280;51777;53.570;9.984;2023-11-19T07:47:39;100026.91;;;10.88;100.00
65190;BME280;51777;53.570;9.984;2023-11-19T07:50:05;100021.09;;;10.95;100.00
65190;BME280;51777;53.570;9.984;2023-11-19T07:52:31;100028.34;;;11.07;100.00
65190;BME280;51777;53.570;9.984;2023-11-19T07:54:56;100035.13;;;11.00;100.00
65190;BME280;51777;53.570;9.984;2023-11-19T07:57:22;100032.88;;;11.05;100.00
65190;BME280;51777;53.570;9.984;2023-11-19T07:59:49;100044.34;;;11.03;100.00
65190;BME280;51777;53.570;9.984;2023-11-19T08:02:17;100046.13;;;11.02;100.00
65190;BME280;51777;53.570;9.984;2023-11-19T08:04:43;100044.03;;;11.06;100.00
65190;BME280;51777;53.570;9.984;2023-11-19T08:07:11;100050.00;;;11.06;100.00
65190;BME280;51777;53.570;9.984;2023-11-19T08:09:36;100055.19;;;11.06;100.00
65190;BME280;51777;53.570;9.984;2023-11-19T08:12:03;100056.81;;;11.07;100.00
65190;BME280;51777;53.570;9.984;2023-11-19T08:14:29;100054.22;;;11.07;100.00
65190;BME280;51777;53.570;9.984;2023-11-19T08:16:58;100049.69;;;11.09;100.00
65190;BME280;51777;53.570;9.984;2023-11-19T08:19:23;100056.63;;;11.09;100.00
65190;BME280;51777;53.570;9.984;2023-11-19T08:21:49;100053.69;;;11.12;100.00
65190;BME280;51777;53.570;9.984;2023-11-19T08:24:14;100058.72;;;11.13;100.00
65190;BME280;51777;53.570;9.984;2023-11-19T08:26:40;100076.50;;;11.16;100.00
65190;BME280;51777;53.570;9.984;2023-11-19T08:29:10;100063.56;;;11.16;100.00
65190;BME280;51777;53.570;9.984;2023-11-19T08:31:41;100070.03;;;11.21;100.00
65190;BME280;51777;53.570;9.984;2023-11-19T08:34:07;100069.84;;;11.22;100.00
65190;BME280;51777;53.570;9.984;2023-11-19T08:36:35;100072.59;;;11.29;100.00
65190;BME280;51777;53.570;9.984;2023-11-19T08:39:01;100071.47;;;11.23;100.00
65190;BME280;51777;53.570;9.984;2023-11-19T08:41:27;100070.31;;;11.26;100.00
65190;BME280;51777;53.570;9.984;2023-11-19T08:43:52;100077.59;;;11.30;100.00
65190;BME280;51777;53.570;9.984;2023-11-19T08:46:18;100070.00;;;11.29;100.00
65190;BME280;51777;53.570;9.984;2023-11-19T08:48:44;100078.72;;;11.28;100.00
65190;BME280;51777;53.570;9.984;2023-11-19T08:51:10;100088.09;;;11.37;100.00
65190;BME280;51777;53.570;9.984;2023-11-19T08:53:35;100084.88;;;11.35;100.00
65190;BME280;51777;53.570;9.984;2023-11-19T08:56:01;100081.00;;;11.31;100.00
65190;BME280;51777;53.570;9.984;2023-11-19T08:58:28;100086.19;;;11.31;100.00
65190;BME280;51777;53.570;9.984;2023-11-19T09:00:54;100088.88;;;11.37;100.00
65190;BME280;51777;53.570;9.984;2023-11-19T09:03:19;100097.63;;;11.36;100.00
65190;BME280;51777;53.570;9.984;2023-11-19T09:05:46;100101.66;;;11.39;100.00
65190;BME280;51777;53.570;9.984;2023-11-19T09:08:11;100097.47;;;11.38;100.00
65190;BME280;51777;53.570;9.984;2023-11-19T09:10:40;100099.72;;;11.41;100.00
65190;BME280;51777;53.570;9.984;2023-11-19T09:15:45;100104.53;;;11.52;100.00
65190;BME280;51777;53.570;9.984;2023-11-19T09:18:29;100113.91;;;11.61;100.00
65190;BME280;51777;53.570;9.984;2023-11-19T09:26:14;100112.72;;;11.72;100.00
65190;BME280;51777;53.570;9.984;2023-11-19T09:29:03;100120.50;;;11.72;100.00
65190;BME280;51777;53.570;9.984;2023-11-19T09:31:28;100114.69;;;11.70;100.00
65190;BME280;51777;53.570;9.984;2023-11-19T09:33:54;100101.22;;;11.74;100.00
65190;BME280;51777;53.570;9.984;2023-11-19T09:36:27;100122.91;;;11.82;100.00
65190;BME280;51777;53.570;9.984;2023-11-19T09:39:04;100127.63;;;12.09;100.00
65190;BME280;51777;53.570;9.984;2023-11-19T09:41:37;100123.41;;;12.16;100.00
65190;BME280;51777;53.570;9.984;2023-11-19T09:44:08;100125.25;;;11.99;100.00
65190;BME280;51777;53.570;9.984;2023-11-19T09:46:41;100124.00;;;11.95;100.00
65190;BME280;51777;53.570;9.984;2023-11-19T09:49:08;100127.91;;;11.91;100.00
65190;BME280;51777;53.570;9.984;2023-11-19T09:51:38;100127.56;;;11.94;100.00
65190;BME280;51777;53.570;9.984;2023-11-19T09:54:06;100122.56;;;11.93;100.00
65190;BME280;51777;53.570;9.984;2023-11-19T09:56:33;100120.63;;;11.87;100.00
65190;BME280;51777;53.570;9.984;2023-11-19T09:59:01;100123.66;;;11.90;100.00
65190;BME280;51777;53.570;9.984;2023-11-19T10:01:29;100124.78;;;11.96;100.00
65190;BME280;51777;53.570;9.984;2023-11-19T10:04:01;100125.16;;;11.85;100.00
65190;BME280;51777;53.570;9.984;2023-11-19T10:06:27;100113.81;;;11.77;100.00
65190;BME280;51777;53.570;9.984;2023-11-19T10:09:05;100114.16;;;11.74;100.00
65190;BME280;51777;53.570;9.984;2023-11-19T10:11:31;100114.22;;;11.66;100.00
65190;BME280;51777;53.570;9.984;2023-11-19T10:13:58;100126.66;;;11.71;100.00
65190;BME280;51777;53.570;9.984;2023-11-19T10:16:34;100112.47;;;11.59;100.00
65190;BME280;51777;53.570;9.984;2023-11-19T10:19:05;100114.75;;;11.54;100.00
65190;BME280;51777;53.570;9.984;2023-11-19T10:21:33;100115.22;;;11.57;100.00
65190;BME280;51777;53.570;9.984;2023-11-19T10:24:03;100113.28;;;11.51;100.00
65190;BME280;51777;53.570;9.984;2023-11-19T10:26:41;100117.47;;;11.52;100.00
65190;BME280;51777;53.570;9.984;2023-11-19T10:29:07;100120.41;;;11.57;100.00
65190;BME280;51777;53.570;9.984;2023-11-19T10:31:33;100124.28;;;11.53;100.00
65190;BME280;51777;53.570;9.984;2023-11-19T10:34:00;100121.19;;;11.58;100.00
65190;BME280;51777;53.570;9.984;2023-11-19T10:36:40;100126.41;;;11.50;100.00
65190;BME280;51777;53.570;9.984;2023-11-19T10:39:06;100117.81;;;11.49;100.00
65190;BME280;51777;53.570;9.984;2023-11-19T10:41:32;100124.94;;;11.47;100.00
65190;BME280;51777;53.570;9.984;2023-11-19T10:43:58;100128.19;;;11.49;100.00
65190;BME280;51777;53.570;9.984;2023-11-19T10:46:36;100125.94;;;11.46;100.00
65190;BME280;51777;53.570;9.984;2023-11-19T10:49:03;100128.84;;;11.43;100.00
65190;BME280;51777;53.570;9.984;2023-11-19T10:51:29;100121.72;;;11.45;100.00
65190;BME280;51777;53.570;9.984;2023-11-19T10:53:58;100128.34;;;11.56;100.00
65190;BME280;51777;53.570;9.984;2023-11-19T10:56:29;100118.72;;;11.72;100.00
65190;BME280;51777;53.570;9.984;2023-11-19T10:58:56;100130.19;;;11.86;100.00
65190;BME280;51777;53.570;9.984;2023-11-19T11:01:27;100128.91;;;11.82;100.00
65190;BME280;51777;53.570;9.984;2023-11-19T11:03:59;100130.00;;;11.88;100.00
65190;BME280;51777;53.570;9.984;2023-11-19T11:06:26;100135.34;;;11.86;100.00
65190;BME280;51777;53.570;9.984;2023-11-19T11:08:53;100135.50;;;11.93;100.00
65190;BME280;51777;53.570;9.984;2023-11-19T11:11:19;100132.75;;;11.86;100.00
65190;BME280;51777;53.570;9.984;2023-11-19T11:13:50;100135.53;;;11.76;100.00
65190;BME280;51777;53.570;9.984;2023-11-19T11:16:18;100139.09;;;11.75;100.00
65190;BME280;51777;53.570;9.984;2023-11-19T11:18:46;100133.97;;;11.67;100.00
65190;BME280;51777;53.570;9.984;2023-11-19T11:21:16;100128.78;;;11.59;100.00
65190;BME280;51777;53.570;9.984;2023-11-19T11:26:34;100142.03;;;11.64;100.00
65190;BME280;51777;53.570;9.984;2023-11-19T11:37:24;100132.34;;;11.66;100.00
65190;BME280;51777;53.570;9.984;2023-11-19T11:39:51;100130.88;;;11.64;100.00
65190;BME280;51777;53.570;9.984;2023-11-19T11:45:05;100139.56;;;11.87;100.00
65190;BME280;51777;53.570;9.984;2023-11-19T11:50:16;100147.66;;;11.92;100.00
65190;BME280;51777;53.570;9.984;2023-11-19T11:55:28;100129.44;;;12.09;100.00
65190;BME280;51777;53.570;9.984;2023-11-19T11:57:55;100134.47;;;12.02;100.00
65190;BME280;51777;53.570;9.984;2023-11-19T12:00:28;100131.84;;;12.10;100.00
65190;BME280;51777;53.570;9.984;2023-11-19T12:03:04;100126.00;;;12.16;100.00
65190;BME280;51777;53.570;9.984;2023-11-19T12:05:29;100130.31;;;12.24;100.00
65190;BME280;51777;53.570;9.984;2023-11-19T12:08:02;100129.47;;;12.31;100.00
65190;BME280;51777;53.570;9.984;2023-11-19T12:10:30;100134.34;;;12.26;100.00
65190;BME280;51777;53.570;9.984;2023-11-19T12:12:59;100123.97;;;12.26;100.00
65190;BME280;51777;53.570;9.984;2023-11-19T12:15:25;100120.88;;;12.31;100.00
65190;BME280;51777;53.570;9.984;2023-11-19T12:17:55;100130.59;;;12.52;100.00
65190;BME280;51777;53.570;9.984;2023-11-19T12:20:23;100139.63;;;12.41;100.00
65190;BME280;51777;53.570;9.984;2023-11-19T12:22:53;100122.34;;;12.25;100.00
65190;BME280;51777;53.570;9.984;2023-11-19T12:25:19;100144.16;;;12.08;100.00
65190;BME280;51777;53.570;9.984;2023-11-19T12:27:47;100134.81;;;11.99;100.00
65190;BME280;51777;53.570;9.984;2023-11-19T12:30:23;100129.63;;;11.99;100.00
65190;BME280;51777;53.570;9.984;2023-11-19T12:32:52;100132.91;;;11.93;100.00
65190;BME280;51777;53.570;9.984;2023-11-19T12:35:19;100125.47;;;11.90;100.00
65190;BME280;51777;53.570;9.984;2023-11-19T12:37:50;100134.22;;;11.89;100.00
65190;BME280;51777;53.570;9.984;2023-11-19T12:40:17;100131.78;;;11.87;100.00
65190;BME280;51777;53.570;9.984;2023-11-19T12:42:54;100129.38;;;11.86;100.00
65190;BME280;51777;53.570;9.984;2023-11-19T12:45:21;100136.84;;;11.81;100.00
65190;BME280;51777;53.570;9.984;2023-11-19T12:47:48;100134.56;;;11.86;100.00
65190;BME280;51777;53.570;9.984;2023-11-19T12:50:15;100133.09;;;11.83;100.00
65190;BME280;51777;53.570;9.984;2023-11-19T12:52:43;100138.94;;;11.85;100.00
65190;BME280;51777;53.570;9.984;2023-11-19T12:55:25;100130.53;;;11.83;100.00
65190;BME280;51777;53.570;9.984;2023-11-19T12:57:52;100125.47;;;11.90;100.00
65190;BME280;51777;53.570;9.984;2023-11-19T13:00:20;100118.03;;;11.87;100.00
65190;BME280;51777;53.570;9.984;2023-11-19T13:02:53;100120.50;;;12.11;100.00
65190;BME280;51777;53.570;9.984;2023-11-19T13:05:25;100114.97;;;12.14;100.00
65190;BME280;51777;53.570;9.984;2023-11-19T13:08:07;100113.88;;;12.09;100.00
65190;BME280;51777;53.570;9.984;2023-11-19T13:10:53;100120.38;;;12.04;100.00
65190;BME280;51777;53.570;9.984;2023-11-19T13:13:19;100121.19;;;12.05;100.00
65190;BME280;51777;53.570;9.984;2023-11-19T13:15:45;100112.63;;;12.04;100.00